createdAt,value
2018-08-19T00:01:00.486Z,8.90
2018-08-19T00:03:28.959Z,8.37
2018-08-19T00:05:57.426Z,8.70
2018-08-19T00:08:25.889Z,7.67
2018-08-19T00:11:07.980Z,9.10
2018-08-19T00:13:37.334Z,8.20
2018-08-19T00:16:06.028Z,8.00
2018-08-19T00:18:35.544Z,9.77
2018-08-19T00:21:07.897Z,9.80
2018-08-19T00:23:41.610Z,8.80
2018-08-19T00:26:10.042Z,8.73
2018-08-19T00:28:38.521Z,8.30
2018-08-19T00:31:07.191Z,8.30
2018-08-19T00:33:35.649Z,8.03
2018-08-19T00:36:18.218Z,8.10
2018-08-19T00:38:46.673Z,7.77
2018-08-19T00:41:15.154Z,6.87
2018-08-19T00:43:43.569Z,7.60
2018-08-19T00:46:21.393Z,7.53
2018-08-19T00:48:49.846Z,7.33
2018-08-19T00:51:18.512Z,7.63
2018-08-19T00:53:46.946Z,7.00
2018-08-19T00:56:15.350Z,7.50
2018-08-19T00:58:43.826Z,7.17
2018-08-19T01:01:23.661Z,6.87
2018-08-19T01:03:54.020Z,6.70
2018-08-19T01:06:22.525Z,7.13
2018-08-19T01:08:50.958Z,6.80
2018-08-19T01:11:34.454Z,7.37
2018-08-19T01:14:06.066Z,6.83
2018-08-19T01:16:34.562Z,6.80
2018-08-19T01:19:03.165Z,6.93
2018-08-19T01:21:32.757Z,6.83
2018-08-19T01:24:02.538Z,6.33
2018-08-19T01:26:34.701Z,6.77
2018-08-19T01:29:03.521Z,5.90
2018-08-19T01:31:32.185Z,5.40
2018-08-19T01:34:00.653Z,6.33
2018-08-19T01:36:30.208Z,6.37
2018-08-19T01:38:59.983Z,5.90
2018-08-19T01:41:28.398Z,6.17
2018-08-19T01:44:10.314Z,5.50
2018-08-19T01:46:41.318Z,5.80
2018-08-19T01:49:11.238Z,5.40
2018-08-19T01:51:42.102Z,5.67
2018-08-19T01:54:15.944Z,5.73
2018-08-19T01:56:44.469Z,5.07
2018-08-19T01:59:12.918Z,4.73
2018-08-19T02:01:49.091Z,5.40
2018-08-19T02:04:18.231Z,6.13
2018-08-19T02:06:46.697Z,7.00
2018-08-19T02:09:16.318Z,5.90
2018-08-19T02:11:48.710Z,6.30
2018-08-19T02:14:17.998Z,5.90
2018-08-19T02:16:47.214Z,7.13
2018-08-19T02:19:15.700Z,6.03
2018-08-19T02:21:44.800Z,5.67
2018-08-19T02:24:13.769Z,5.97
2018-08-19T02:26:42.179Z,5.50
2018-08-19T02:29:27.149Z,5.90
2018-08-19T02:32:00.689Z,5.70
2018-08-19T02:34:31.265Z,6.40
2018-08-19T02:37:07.441Z,5.50
2018-08-19T02:39:38.607Z,6.00
2018-08-19T02:42:18.157Z,5.90
2018-08-19T02:44:46.605Z,6.00
2018-08-19T02:47:15.034Z,5.53
2018-08-19T02:49:43.883Z,5.73
2018-08-19T02:52:17.382Z,5.57
2018-08-19T02:54:46.499Z,5.93
2018-08-19T02:57:15.321Z,5.37
2018-08-19T02:59:43.781Z,5.20
2018-08-19T03:02:43.517Z,5.40
2018-08-19T03:05:15.721Z,5.67
2018-08-19T03:07:44.257Z,5.30
2018-08-19T03:10:15.868Z,5.40
2018-08-19T03:12:44.849Z,5.53
2018-08-19T03:15:14.908Z,5.00
2018-08-19T03:17:46.475Z,5.67
2018-08-19T03:20:14.993Z,5.10
2018-08-19T03:22:43.594Z,4.73
2018-08-19T03:25:12.370Z,5.10
2018-08-19T03:27:40.962Z,4.87
2018-08-19T03:30:11.667Z,4.80
2018-08-19T03:32:50.163Z,5.00
2018-08-19T03:35:20.051Z,4.67
2018-08-19T03:37:51.937Z,5.30
2018-08-19T03:40:20.563Z,6.03
2018-08-19T03:42:49.459Z,5.77
2018-08-19T03:45:18.554Z,5.33
2018-08-19T03:47:47.721Z,5.10
2018-08-19T03:50:21.087Z,5.17
2018-08-19T03:52:50.390Z,5.43
2018-08-19T03:55:24.234Z,5.40
2018-08-19T03:57:54.244Z,5.50
2018-08-19T04:00:23.164Z,5.40
2018-08-19T04:02:52.271Z,5.40
2018-08-19T04:05:34.885Z,5.90
2018-08-19T04:08:03.445Z,5.50
2018-08-19T04:10:32.250Z,5.83
2018-08-19T04:13:01.242Z,5.90
2018-08-19T04:15:30.100Z,5.80
2018-08-19T04:17:58.951Z,5.57
2018-08-19T04:20:27.909Z,6.00
2018-08-19T04:22:57.252Z,5.03
2018-08-19T04:25:31.515Z,5.83
2018-08-19T04:28:00.611Z,5.70
2018-08-19T04:30:29.659Z,5.27
2018-08-19T04:32:58.687Z,5.30
2018-08-19T04:35:27.992Z,5.47
2018-08-19T04:37:56.836Z,5.63
2018-08-19T04:40:25.355Z,5.30
2018-08-19T04:42:53.838Z,5.87
2018-08-19T04:45:22.311Z,5.80
2018-08-19T04:47:50.790Z,4.60
2018-08-19T04:50:19.319Z,5.03
2018-08-19T04:52:48.106Z,5.03
2018-08-19T04:55:16.670Z,5.17
2018-08-19T04:57:45.275Z,5.53
2018-08-19T05:00:13.814Z,5.00
2018-08-19T05:02:42.283Z,4.97
2018-08-19T05:05:10.722Z,5.10
2018-08-19T05:07:39.214Z,4.57
2018-08-19T05:10:07.890Z,5.40
2018-08-19T05:12:36.346Z,5.10
2018-08-19T05:15:04.977Z,4.97
2018-08-19T05:17:33.652Z,4.50
2018-08-19T05:20:15.261Z,5.37
2018-08-19T05:22:44.070Z,4.97
2018-08-19T05:25:12.711Z,4.77
2018-08-19T05:27:41.149Z,5.00
2018-08-19T05:30:09.971Z,5.10
2018-08-19T05:32:42.482Z,5.23
2018-08-19T05:35:12.461Z,5.20
2018-08-19T05:37:43.249Z,4.60
2018-08-19T05:40:20.579Z,5.37
2018-08-19T05:42:49.289Z,5.20
2018-08-19T05:45:18.929Z,4.97
2018-08-19T05:48:09.072Z,5.67
2018-08-19T05:50:38.175Z,4.80
2018-08-19T05:53:06.794Z,5.10
2018-08-19T05:55:35.336Z,5.43
2018-08-19T05:58:11.004Z,4.53
2018-08-19T06:00:45.234Z,5.20
2018-08-19T06:03:15.027Z,4.30
2018-08-19T06:05:43.785Z,4.70
2018-08-19T06:08:13.985Z,5.00
2018-08-19T06:10:42.669Z,5.27
2018-08-19T06:13:12.397Z,4.97
2018-08-19T06:15:40.967Z,5.47
2018-08-19T06:18:09.757Z,4.97
2018-08-19T06:20:38.205Z,5.07
2018-08-19T06:23:06.892Z,5.37
2018-08-19T06:25:58.540Z,4.30
2018-08-19T06:28:33.543Z,4.63
2018-08-19T06:31:02.478Z,4.93
2018-08-19T06:33:31.376Z,4.60
2018-08-19T06:36:00.339Z,4.47
2018-08-19T06:38:29.049Z,4.87
2018-08-19T06:40:57.488Z,5.00
2018-08-19T06:43:25.911Z,5.27
2018-08-19T06:45:54.338Z,4.70
2018-08-19T06:48:22.788Z,5.00
2018-08-19T06:50:51.666Z,4.57
2018-08-19T06:53:25.402Z,4.50
2018-08-19T06:55:54.122Z,5.20
2018-08-19T06:58:23.720Z,5.00
2018-08-19T07:00:52.630Z,4.93
2018-08-19T07:03:21.407Z,4.73
2018-08-19T07:06:06.637Z,4.43
2018-08-19T07:08:38.798Z,4.77
2018-08-19T07:11:07.414Z,4.50
2018-08-19T07:13:43.424Z,5.03
2018-08-19T07:16:13.123Z,4.47
2018-08-19T07:18:41.858Z,5.37
2018-08-19T07:21:10.867Z,4.57
2018-08-19T07:23:41.068Z,4.53
2018-08-19T07:26:09.983Z,5.00
2018-08-19T07:28:38.586Z,5.30
2018-08-19T07:31:07.258Z,5.17
2018-08-19T07:33:35.708Z,5.40
2018-08-19T07:36:05.305Z,4.33
2018-08-19T07:38:34.315Z,4.97
2018-08-19T07:41:03.126Z,4.37
2018-08-19T07:43:31.926Z,4.77
2018-08-19T07:46:00.642Z,5.07
2018-08-19T07:48:31.031Z,5.40
2018-08-19T07:51:00.032Z,5.13
2018-08-19T07:53:28.730Z,5.13
2018-08-19T07:55:57.273Z,5.40
2018-08-19T07:58:36.957Z,5.10
2018-08-19T08:01:05.675Z,4.53
2018-08-19T08:03:34.201Z,5.00
2018-08-19T08:06:03.333Z,4.83
2018-08-19T08:08:31.924Z,4.87
2018-08-19T08:11:00.861Z,5.23
2018-08-19T08:13:29.639Z,5.40
2018-08-19T08:15:59.582Z,4.90
2018-08-19T08:18:28.491Z,5.13
2018-08-19T08:21:02.272Z,5.07
2018-08-19T08:23:30.956Z,4.97
2018-08-19T08:25:59.390Z,5.10
2018-08-19T08:28:28.673Z,4.93
2018-08-19T08:30:57.178Z,5.20
2018-08-19T08:33:25.621Z,4.97
2018-08-19T08:35:57.169Z,4.53
2018-08-19T08:38:26.295Z,4.60
2018-08-19T08:40:54.935Z,4.70
2018-08-19T08:43:23.449Z,5.80
2018-08-19T08:45:53.504Z,5.23
2018-08-19T08:48:21.954Z,4.93
2018-08-19T08:50:50.458Z,4.87
2018-08-19T08:53:20.014Z,5.03
2018-08-19T08:55:49.461Z,4.53
2018-08-19T08:58:18.200Z,5.83
2018-08-19T09:00:46.692Z,5.20
2018-08-19T09:03:15.255Z,4.80
2018-08-19T09:05:43.723Z,4.70
2018-08-19T09:08:12.288Z,4.93
2018-08-19T09:10:40.883Z,5.20
2018-08-19T09:13:09.385Z,4.83
2018-08-19T09:15:38.850Z,5.60
2018-08-19T09:18:07.352Z,5.20
2018-08-19T09:20:35.802Z,6.03
2018-08-19T09:23:04.628Z,6.43
2018-08-19T09:25:33.089Z,6.27
2018-08-19T09:28:01.501Z,6.27
2018-08-19T09:30:43.778Z,6.67
2018-08-19T09:33:13.545Z,6.40
2018-08-19T09:35:43.043Z,6.37
2018-08-19T09:38:16.626Z,6.00
2018-08-19T09:40:45.494Z,6.53
2018-08-19T09:43:14.790Z,5.93
2018-08-19T09:45:43.637Z,6.10
2018-08-19T09:48:12.605Z,5.70
2018-08-19T09:50:41.823Z,5.67
2018-08-19T09:53:10.285Z,5.20
2018-08-19T09:55:42.157Z,6.20
2018-08-19T09:58:12.651Z,5.60
2018-08-19T10:00:46.422Z,6.37
2018-08-19T10:03:14.963Z,5.83
2018-08-19T10:05:43.461Z,6.13
2018-08-19T10:08:11.985Z,6.00
2018-08-19T10:10:40.665Z,5.83
2018-08-19T10:13:09.151Z,6.00
2018-08-19T10:15:37.665Z,5.90
2018-08-19T10:18:08.368Z,6.17
2018-08-19T10:20:36.845Z,7.10
2018-08-19T10:23:05.713Z,6.70
2018-08-19T10:25:34.162Z,5.30
2018-08-19T10:28:02.642Z,6.73
2018-08-19T10:30:31.606Z,6.30
2018-08-19T10:33:06.438Z,6.47
2018-08-19T10:35:35.505Z,7.50
2018-08-19T10:38:04.712Z,7.63
2018-08-19T10:40:33.289Z,6.70
2018-08-19T10:43:08.852Z,6.30
2018-08-19T10:45:38.913Z,7.10
2018-08-19T10:48:09.168Z,7.07
2018-08-19T10:50:37.598Z,7.13
2018-08-19T10:53:13.111Z,6.20
2018-08-19T10:55:41.569Z,6.03
2018-08-19T10:58:10.029Z,7.07
2018-08-19T11:00:38.493Z,6.90
2018-08-19T11:03:11.402Z,6.93
2018-08-19T11:05:41.957Z,7.70
2018-08-19T11:08:11.285Z,6.80
2018-08-19T11:10:39.773Z,6.13
2018-08-19T11:13:08.364Z,6.53
2018-08-19T11:15:46.577Z,6.63
2018-08-19T11:18:21.308Z,6.40
2018-08-19T11:20:50.378Z,6.97
2018-08-19T11:23:23.033Z,7.20
2018-08-19T11:25:52.747Z,6.40
2018-08-19T11:28:45.878Z,6.80
2018-08-19T11:31:20.971Z,6.30
2018-08-19T11:33:49.966Z,7.73
2018-08-19T11:36:18.577Z,7.23
2018-08-19T11:38:50.438Z,6.40
2018-08-19T11:41:19.398Z,7.00
2018-08-19T11:43:49.091Z,6.40
2018-08-19T11:46:17.568Z,7.70
2018-08-19T11:48:47.307Z,6.67
2018-08-19T11:51:15.713Z,7.13
2018-08-19T11:53:44.145Z,8.07
2018-08-19T11:56:12.606Z,6.90
2018-08-19T11:58:44.533Z,6.83
2018-08-19T12:01:19.262Z,7.00
2018-08-19T12:03:57.341Z,9.07
2018-08-19T12:06:30.142Z,7.10
2018-08-19T12:08:59.866Z,7.23
2018-08-19T12:11:30.745Z,7.07
2018-08-19T12:14:01.905Z,6.50
2018-08-19T12:16:30.394Z,5.93
2018-08-19T12:19:08.106Z,7.03
2018-08-19T12:21:40.899Z,7.00
2018-08-19T12:24:48.883Z,6.90
2018-08-19T12:27:18.754Z,7.07
2018-08-19T12:29:47.574Z,7.40
2018-08-19T12:32:25.625Z,6.47
2018-08-19T12:34:58.400Z,7.47
2018-08-19T12:37:28.014Z,6.37
2018-08-19T12:39:57.659Z,7.10
2018-08-19T12:42:28.421Z,7.20
2018-08-19T12:45:02.358Z,6.80
2018-08-19T12:47:30.901Z,6.63
2018-08-19T12:50:02.919Z,6.90
2018-08-19T12:52:32.703Z,7.30
2018-08-19T12:55:06.881Z,7.00
2018-08-19T12:57:36.317Z,6.60
2018-08-19T13:00:17.542Z,7.27
2018-08-19T13:02:47.722Z,6.60
2018-08-19T13:05:17.001Z,6.53
2018-08-19T13:07:45.711Z,6.40
2018-08-19T13:10:14.332Z,6.80
2018-08-19T13:12:51.849Z,6.93
2018-08-19T13:15:21.673Z,7.17
2018-08-19T13:17:50.154Z,6.80
2018-08-19T13:20:18.613Z,6.97
2018-08-19T13:22:52.530Z,6.80
2018-08-19T13:25:22.165Z,6.43
2018-08-19T13:27:50.633Z,6.80
2018-08-19T13:30:20.065Z,7.20
2018-08-19T13:32:49.073Z,7.37
2018-08-19T13:35:17.642Z,6.73
2018-08-19T13:37:46.088Z,7.10
2018-08-19T13:40:14.830Z,6.60
2018-08-19T13:42:43.349Z,7.40
2018-08-19T13:45:15.747Z,6.63
2018-08-19T13:47:45.572Z,7.23
2018-08-19T13:50:14.295Z,6.57
2018-08-19T13:52:43.045Z,6.77
2018-08-19T13:55:13.404Z,7.17
2018-08-19T13:57:41.989Z,6.53
2018-08-19T14:00:16.224Z,7.23
2018-08-19T14:02:45.286Z,7.03
2018-08-19T14:05:13.757Z,7.13
2018-08-19T14:07:42.560Z,7.23
2018-08-19T14:10:12.243Z,7.30
2018-08-19T14:12:40.713Z,6.83
2018-08-19T14:15:09.165Z,6.90
2018-08-19T14:17:37.669Z,6.20
2018-08-19T14:20:07.384Z,7.47
2018-08-19T14:22:35.890Z,6.80
2018-08-19T14:25:05.129Z,6.97
2018-08-19T14:27:33.549Z,8.20
2018-08-19T14:30:02.098Z,6.77
2018-08-19T14:32:34.002Z,7.07
2018-08-19T14:35:03.514Z,7.40
2018-08-19T14:37:32.042Z,7.37
2018-08-19T14:40:01.419Z,7.77
2018-08-19T14:42:30.040Z,6.57
2018-08-19T14:44:59.422Z,7.53
2018-08-19T14:47:28.643Z,7.10
2018-08-19T14:49:59.065Z,6.67
2018-08-19T14:52:28.037Z,6.93
2018-08-19T14:54:56.485Z,6.87
2018-08-19T14:57:25.073Z,7.80
2018-08-19T14:59:54.690Z,7.03
2018-08-19T15:02:23.300Z,7.50
2018-08-19T15:04:51.759Z,6.97
2018-08-19T15:07:20.196Z,7.00
2018-08-19T15:09:51.360Z,7.33
2018-08-19T15:12:21.103Z,6.63
2018-08-19T15:14:49.933Z,6.57
2018-08-19T15:17:18.418Z,6.10
2018-08-19T15:19:49.116Z,6.10
2018-08-19T15:22:18.203Z,7.13
2018-08-19T15:24:51.455Z,7.60
2018-08-19T15:27:22.297Z,7.30
2018-08-19T15:29:56.388Z,7.40
2018-08-19T15:32:25.841Z,6.37
2018-08-19T15:37:48.367Z,7.00
2018-08-19T15:49:50.295Z,6.60
2018-08-19T15:52:18.741Z,7.10
2018-08-19T15:54:51.461Z,6.63
2018-08-19T15:57:20.134Z,6.80
2018-08-19T15:59:48.903Z,7.57
2018-08-19T16:02:17.686Z,8.40
2018-08-19T16:04:46.519Z,7.40
2018-08-19T16:07:15.230Z,8.70
2018-08-19T16:09:43.691Z,6.80
2018-08-19T16:12:12.329Z,6.67
2018-08-19T16:14:40.686Z,6.47
2018-08-19T16:17:09.146Z,6.77
2018-08-19T16:19:37.562Z,6.73
2018-08-19T16:22:06.094Z,5.90
2018-08-19T16:24:34.553Z,6.00
2018-08-19T16:27:03.093Z,5.53
2018-08-19T16:29:31.554Z,6.70
2018-08-19T16:31:59.992Z,6.07
2018-08-19T16:34:28.430Z,6.73
2018-08-19T16:36:56.869Z,5.50
2018-08-19T16:39:25.739Z,6.43
2018-08-19T16:41:54.100Z,6.47
2018-08-19T16:44:22.500Z,6.00
2018-08-19T16:46:50.925Z,6.60
2018-08-19T16:49:19.350Z,6.27
2018-08-19T16:51:47.854Z,6.40
2018-08-19T16:54:16.618Z,6.77
2018-08-19T16:56:45.128Z,6.23
2018-08-19T16:59:13.591Z,7.13
2018-08-19T17:01:42.291Z,6.67
2018-08-19T17:04:10.730Z,5.97
2018-08-19T17:06:39.446Z,6.60
2018-08-19T17:09:09.639Z,6.60
2018-08-19T17:11:38.514Z,6.40
2018-08-19T17:14:07.105Z,7.60
2018-08-19T17:16:35.680Z,7.60
2018-08-19T17:19:04.158Z,6.57
2018-08-19T17:21:32.634Z,6.97
2018-08-19T17:24:01.105Z,6.60
2018-08-19T17:26:29.628Z,7.30
2018-08-19T17:29:04.610Z,6.63
2018-08-19T17:31:33.378Z,7.33
2018-08-19T17:34:06.298Z,6.37
2018-08-19T17:36:35.296Z,5.90
2018-08-19T17:39:03.978Z,6.40
2018-08-19T17:41:32.342Z,5.90
2018-08-19T17:44:03.351Z,5.90
2018-08-19T17:46:32.061Z,5.63
2018-08-19T17:49:01.172Z,5.80
2018-08-19T17:51:34.138Z,6.10
2018-08-19T17:54:03.153Z,6.33
2018-08-19T17:56:31.603Z,6.10
2018-08-19T17:59:00.117Z,5.63
2018-08-19T18:01:28.560Z,5.60
2018-08-19T18:03:56.996Z,6.10
2018-08-19T18:06:25.489Z,6.63
2018-08-19T18:08:54.450Z,6.83
2018-08-19T18:11:23.000Z,5.80
2018-08-19T18:13:51.497Z,6.23
2018-08-19T18:16:20.047Z,6.00
2018-08-19T18:18:48.713Z,6.27
2018-08-19T18:21:17.205Z,6.30
2018-08-19T18:23:48.821Z,6.60
2018-08-19T18:26:18.546Z,6.40
2018-08-19T18:28:48.262Z,7.10
2018-08-19T18:31:22.227Z,6.37
2018-08-19T18:33:56.017Z,5.80
2018-08-19T18:36:25.579Z,6.90
2018-08-19T18:38:56.228Z,6.40
2018-08-19T18:41:30.034Z,6.77
2018-08-19T18:44:00.025Z,6.37
2018-08-19T18:46:28.662Z,6.50
2018-08-19T18:49:13.535Z,7.47
2018-08-19T18:51:44.029Z,6.60
2018-08-19T18:54:22.577Z,6.33
2018-08-19T18:56:50.997Z,6.60
2018-08-19T18:59:19.466Z,6.40
2018-08-19T19:01:48.458Z,6.27
2018-08-19T19:04:16.914Z,5.70
2018-08-19T19:06:45.378Z,6.13
2018-08-19T19:09:13.857Z,6.40
2018-08-19T19:11:42.269Z,5.80
2018-08-19T19:14:20.094Z,6.20
2018-08-19T19:16:49.535Z,6.00
2018-08-19T19:19:18.160Z,6.30
2018-08-19T19:21:51.943Z,6.30
2018-08-19T19:24:24.710Z,5.93
2018-08-19T19:26:53.174Z,6.17
2018-08-19T19:29:26.264Z,6.90
2018-08-19T19:31:55.653Z,6.73
2018-08-19T19:34:24.162Z,5.73
2018-08-19T19:36:52.574Z,6.80
2018-08-19T19:39:21.054Z,6.70
2018-08-19T19:41:52.267Z,6.50
2018-08-19T19:44:26.725Z,5.90
2018-08-19T19:46:55.164Z,6.60
2018-08-19T19:49:23.742Z,6.10
2018-08-19T19:51:58.063Z,6.30
2018-08-19T19:54:27.673Z,6.10
2018-08-19T19:56:56.144Z,5.93
2018-08-19T19:59:26.397Z,6.33
2018-08-19T20:01:54.841Z,5.63
2018-08-19T20:04:23.609Z,5.60
2018-08-19T20:06:52.129Z,6.07
2018-08-19T20:09:20.580Z,5.97
2018-08-19T20:11:49.001Z,4.90
2018-08-19T20:14:17.461Z,5.83
2018-08-19T20:16:45.873Z,5.90
2018-08-19T20:19:14.309Z,5.50
2018-08-19T20:21:42.773Z,4.73
2018-08-19T20:24:11.233Z,4.97
2018-08-19T20:26:39.654Z,5.30
2018-08-19T20:29:08.154Z,5.30
2018-08-19T20:31:36.602Z,4.93
2018-08-19T20:34:05.082Z,4.93
2018-08-19T20:36:33.502Z,4.33
2018-08-19T20:39:05.601Z,4.43
2018-08-19T20:41:34.067Z,4.73
2018-08-19T20:44:02.733Z,4.90
2018-08-19T20:46:31.198Z,5.27
2018-08-19T20:48:59.647Z,4.77
2018-08-19T20:51:28.212Z,5.40
2018-08-19T20:53:56.641Z,4.63
2018-08-19T20:56:25.101Z,4.60
2018-08-19T20:58:53.549Z,5.30
2018-08-19T21:01:27.821Z,4.90
2018-08-19T21:03:56.851Z,5.13
2018-08-19T21:06:25.290Z,4.97
2018-08-19T21:08:53.959Z,4.50
2018-08-19T21:11:22.377Z,4.40
2018-08-19T21:13:51.073Z,4.80
2018-08-19T21:16:19.530Z,4.60
2018-08-19T21:18:48.011Z,4.60
2018-08-19T21:21:16.414Z,5.23
2018-08-19T21:23:44.910Z,4.60
2018-08-19T21:26:13.305Z,4.77
2018-08-19T21:28:46.833Z,4.27
2018-08-19T21:31:15.481Z,4.60
2018-08-19T21:33:44.149Z,4.00
2018-08-19T21:36:12.597Z,3.90
2018-08-19T21:38:41.019Z,5.10
2018-08-19T21:41:09.465Z,4.30
2018-08-19T21:43:37.896Z,4.40
2018-08-19T21:46:06.400Z,4.73
2018-08-19T21:48:34.869Z,3.87
2018-08-19T21:51:03.337Z,4.53
2018-08-19T21:53:31.789Z,4.00
2018-08-19T21:56:00.214Z,4.07
2018-08-19T21:58:28.724Z,4.53
2018-08-19T22:01:02.970Z,4.37
2018-08-19T22:03:36.872Z,3.70
2018-08-19T22:06:06.386Z,4.57
2018-08-19T22:08:34.851Z,4.40
2018-08-19T22:11:03.364Z,3.83
2018-08-19T22:13:31.869Z,4.53
2018-08-19T22:16:00.343Z,4.00
2018-08-19T22:18:30.047Z,4.23
2018-08-19T22:21:22.008Z,4.50
2018-08-19T22:23:51.697Z,4.30
2018-08-19T22:26:21.079Z,4.70
2018-08-19T22:29:06.262Z,4.20
2018-08-19T22:31:34.706Z,4.00
2018-08-19T22:34:03.174Z,3.97
2018-08-19T22:36:31.605Z,4.23
2018-08-19T22:39:00.083Z,3.80
2018-08-19T22:41:29.994Z,4.17
2018-08-19T22:43:58.710Z,4.00
2018-08-19T22:46:27.759Z,3.90
2018-08-19T22:48:56.791Z,3.90
2018-08-19T22:51:26.298Z,4.23
2018-08-19T22:53:55.710Z,3.73
2018-08-19T22:56:24.178Z,3.73
2018-08-19T22:58:52.715Z,3.90
2018-08-19T23:01:21.550Z,4.60
2018-08-19T23:03:58.926Z,4.00
2018-08-19T23:06:27.729Z,3.97
2018-08-19T23:08:56.173Z,3.73
2018-08-19T23:11:31.210Z,4.13
2018-08-19T23:14:11.135Z,4.87
2018-08-19T23:16:39.599Z,4.20
2018-08-19T23:19:08.014Z,4.40
2018-08-19T23:21:36.473Z,3.93
2018-08-19T23:24:05.303Z,3.80
2018-08-19T23:26:33.772Z,3.83
2018-08-19T23:29:02.233Z,4.20
2018-08-19T23:31:30.692Z,4.57
2018-08-19T23:33:59.113Z,3.60
2018-08-19T23:36:27.509Z,4.87
2018-08-19T23:38:55.949Z,4.47
2018-08-19T23:41:24.397Z,4.53
2018-08-19T23:43:52.826Z,3.93
2018-08-19T23:46:21.249Z,4.40
2018-08-19T23:48:49.701Z,3.90
2018-08-19T23:51:24.325Z,4.30
2018-08-19T23:53:52.769Z,3.77
2018-08-19T23:56:21.201Z,4.00
2018-08-19T23:58:49.645Z,5.20
